createdAt,value
2022-09-13T00:02:23.916Z,98322.41
2022-09-13T00:04:51.131Z,98327.84
2022-09-13T00:07:18.355Z,98319.00
2022-09-13T00:09:47.036Z,98326.28
2022-09-13T00:12:14.157Z,98326.53
2022-09-13T00:14:41.616Z,98320.03
2022-09-13T00:17:08.800Z,98319.75
2022-09-13T00:19:36.091Z,98324.16
2022-09-13T00:22:03.331Z,98318.97
2022-09-13T00:24:30.466Z,98315.59
2022-09-13T00:26:59.064Z,98314.81
2022-09-13T00:29:26.370Z,98319.47
2022-09-13T00:31:53.766Z,98311.69
2022-09-13T00:34:21.182Z,98315.28
2022-09-13T00:36:48.393Z,98308.00
2022-09-13T00:39:15.492Z,98310.09
2022-09-13T00:41:42.728Z,98311.63
2022-09-13T00:44:50.553Z,98310.06
2022-09-13T00:47:21.508Z,98314.97
2022-09-13T00:49:51.936Z,98316.28
2022-09-13T00:52:24.184Z,98315.19
2022-09-13T00:54:58.944Z,98316.97
2022-09-13T00:57:27.214Z,98318.53
2022-09-13T01:00:01.128Z,98317.72
2022-09-13T01:02:28.970Z,98311.72
2022-09-13T01:04:56.600Z,98303.63
2022-09-13T01:07:24.011Z,98305.16
2022-09-13T01:09:53.362Z,98309.84
2022-09-13T01:12:31.624Z,98314.47
2022-09-13T01:15:02.942Z,98323.50
2022-09-13T01:17:31.839Z,98314.13
2022-09-13T01:20:00.095Z,98325.25
2022-09-13T01:23:25.840Z,98322.59
2022-09-13T01:26:23.092Z,98320.47
2022-09-13T01:29:27.351Z,98314.72
2022-09-13T01:32:06.515Z,98319.63
2022-09-13T01:34:43.777Z,98317.00
2022-09-13T01:37:25.825Z,98311.53
2022-09-13T01:40:05.536Z,98317.69
2022-09-13T01:42:48.673Z,98313.00
2022-09-13T01:45:26.008Z,98317.13
2022-09-13T01:47:58.966Z,98317.59
2022-09-13T01:50:39.900Z,98320.69
2022-09-13T01:53:18.964Z,98319.63
2022-09-13T01:55:53.121Z,98319.56
2022-09-13T01:58:27.370Z,98316.97
2022-09-13T02:01:00.639Z,98313.38
2022-09-13T02:03:34.562Z,98315.41
2022-09-13T02:06:06.186Z,98314.88
2022-09-13T02:08:40.534Z,98311.19
2022-09-13T02:11:10.929Z,98302.13
2022-09-13T02:13:41.638Z,98307.50
2022-09-13T02:16:15.550Z,98308.00
2022-09-13T02:18:49.011Z,98315.50
2022-09-13T02:21:21.570Z,98307.41
2022-09-13T02:23:51.999Z,98311.81
2022-09-13T02:26:21.698Z,98315.72
2022-09-13T02:28:52.457Z,98310.56
2022-09-13T02:31:26.381Z,98308.22
2022-09-13T02:33:59.428Z,98307.41
2022-09-13T02:36:30.677Z,98306.34
2022-09-13T02:39:01.186Z,98307.63
2022-09-13T02:41:36.277Z,98302.13
2022-09-13T02:44:06.575Z,98299.78
2022-09-13T02:46:45.343Z,98309.53
2022-09-13T02:49:23.606Z,98308.78
2022-09-13T02:51:55.817Z,98309.53
2022-09-13T02:54:30.728Z,98318.66
2022-09-13T02:57:02.295Z,98311.63
2022-09-13T02:59:29.589Z,98308.47
2022-09-13T03:02:00.343Z,98319.31
2022-09-13T03:04:29.275Z,98318.78
2022-09-13T03:06:56.427Z,98323.16
2022-09-13T03:09:24.099Z,98324.97
2022-09-13T03:12:17.837Z,98322.09
2022-09-13T03:14:52.774Z,98323.13
2022-09-13T03:17:35.263Z,98326.19
2022-09-13T03:20:10.315Z,98328.69
2022-09-13T03:22:57.817Z,98311.13
2022-09-13T03:25:35.612Z,98311.94
2022-09-13T03:28:14.585Z,98317.34
2022-09-13T03:30:51.026Z,98314.44
2022-09-13T03:33:28.563Z,98322.91
2022-09-13T03:36:05.142Z,98318.22
2022-09-13T03:38:37.373Z,98318.72
2022-09-13T03:41:08.249Z,98327.50
2022-09-13T03:43:40.373Z,98327.72
2022-09-13T03:46:12.449Z,98332.38
2022-09-13T03:48:42.785Z,98327.44
2022-09-13T03:51:11.697Z,98329.78
2022-09-13T03:53:43.361Z,98335.19
2022-09-13T03:56:15.805Z,98329.25
2022-09-13T03:58:43.944Z,98338.81
2022-09-13T04:01:11.118Z,98338.03
2022-09-13T04:03:38.889Z,98332.06
2022-09-13T04:06:06.998Z,98334.16
2022-09-13T04:08:35.707Z,98333.94
2022-09-13T04:11:02.852Z,98332.13
2022-09-13T04:13:29.944Z,98343.81
2022-09-13T04:16:02.417Z,98344.84
2022-09-13T04:18:30.074Z,98352.66
2022-09-13T04:20:58.636Z,98347.78
2022-09-13T04:23:27.340Z,98343.09
2022-09-13T04:26:01.480Z,98336.84
2022-09-13T04:28:28.784Z,98338.06
2022-09-13T04:30:55.863Z,98343.50
2022-09-13T04:33:23.365Z,98344.53
2022-09-13T04:35:54.664Z,98339.81
2022-09-13T04:38:21.814Z,98339.78
2022-09-13T04:40:53.593Z,98338.75
2022-09-13T04:43:22.437Z,98346.56
2022-09-13T04:45:50.242Z,98349.34
2022-09-13T04:48:17.627Z,98350.50
2022-09-13T04:50:44.973Z,98350.22
2022-09-13T04:53:12.540Z,98354.28
2022-09-13T04:55:39.694Z,98350.31
2022-09-13T04:58:06.846Z,98348.94
2022-09-13T05:00:36.070Z,98356.31
2022-09-13T05:03:03.460Z,98359.06
2022-09-13T05:05:32.356Z,98356.66
2022-09-13T05:07:59.536Z,98360.41
2022-09-13T05:10:26.632Z,98366.47
2022-09-13T05:12:53.766Z,98371.50
2022-09-13T05:15:20.962Z,98372.16
2022-09-13T05:17:49.502Z,98372.31
2022-09-13T05:20:16.668Z,98371.72
2022-09-13T05:22:43.756Z,98379.16
2022-09-13T05:25:10.889Z,98374.53
2022-09-13T05:27:38.206Z,98371.41
2022-09-13T05:30:06.547Z,98375.88
2022-09-13T05:32:33.671Z,98372.25
2022-09-13T05:35:02.172Z,98368.81
2022-09-13T05:37:29.489Z,98376.06
2022-09-13T05:40:12.755Z,98373.66
2022-09-13T05:42:40.457Z,98372.53
2022-09-13T05:45:09.423Z,98369.06
2022-09-13T05:47:36.628Z,98372.09
2022-09-13T05:50:11.011Z,98367.47
2022-09-13T05:52:41.004Z,98375.81
2022-09-13T05:55:09.792Z,98362.28
2022-09-13T05:57:37.725Z,98357.53
2022-09-13T06:00:05.593Z,98365.31
2022-09-13T06:02:39.659Z,98363.88
2022-09-13T06:05:10.254Z,98355.56
2022-09-13T06:07:40.421Z,98353.13
2022-09-13T06:10:08.554Z,98360.13
2022-09-13T06:12:35.732Z,98361.31
2022-09-13T06:15:03.176Z,98361.28
2022-09-13T06:17:30.322Z,98368.13
2022-09-13T06:19:57.425Z,98372.88
2022-09-13T06:22:25.953Z,98371.25
2022-09-13T06:24:53.096Z,98378.09
2022-09-13T06:27:20.307Z,98379.50
2022-09-13T06:29:47.433Z,98383.88
2022-09-13T06:32:14.524Z,98370.53
2022-09-13T06:34:41.690Z,98371.50
2022-09-13T06:37:08.792Z,98369.16
2022-09-13T06:39:37.267Z,98368.38
2022-09-13T06:42:04.864Z,98363.41
2022-09-13T06:44:39.789Z,98369.78
2022-09-13T06:47:07.089Z,98368.16
2022-09-13T06:49:34.226Z,98374.16
2022-09-13T06:52:01.478Z,98380.13
2022-09-13T06:54:28.541Z,98377.91
2022-09-13T06:56:57.085Z,98386.28
2022-09-13T06:59:24.478Z,98393.47
2022-09-13T07:01:51.899Z,98390.16
2022-09-13T07:04:19.562Z,98393.16
2022-09-13T07:06:48.455Z,98392.28
2022-09-13T07:09:18.233Z,98399.03
2022-09-13T07:11:47.096Z,98393.84
2022-09-13T07:14:17.471Z,98398.22
2022-09-13T07:16:46.158Z,98396.44
2022-09-13T07:19:15.404Z,98389.34
2022-09-13T07:21:42.727Z,98397.47
2022-09-13T07:24:10.301Z,98396.69
2022-09-13T07:26:37.781Z,98393.22
2022-09-13T07:29:06.749Z,98391.19
2022-09-13T07:31:37.222Z,98391.78
2022-09-13T07:34:06.802Z,98396.25
2022-09-13T07:36:36.018Z,98398.53
2022-09-13T07:39:04.685Z,98389.97
2022-09-13T07:41:33.422Z,98401.50
2022-09-13T07:44:01.891Z,98398.88
2022-09-13T07:46:33.622Z,98396.53
2022-09-13T07:49:02.513Z,98404.75
2022-09-13T07:51:31.851Z,98392.75
2022-09-13T07:54:01.625Z,98397.84
2022-09-13T07:56:30.844Z,98398.94
2022-09-13T07:59:00.969Z,98393.81
2022-09-13T08:01:30.159Z,98400.00
2022-09-13T08:03:59.245Z,98396.91
2022-09-13T08:06:29.598Z,98401.69
2022-09-13T08:08:56.945Z,98393.59
2022-09-13T08:11:26.110Z,98395.22
2022-09-13T08:13:53.381Z,98391.13
2022-09-13T08:16:22.548Z,98389.03
2022-09-13T08:18:51.425Z,98387.16
2022-09-13T08:21:19.274Z,98376.47
2022-09-13T08:23:48.030Z,98376.16
2022-09-13T08:26:15.222Z,98364.16
2022-09-13T08:28:43.015Z,98374.00
2022-09-13T08:31:11.869Z,98365.53
2022-09-13T08:33:43.020Z,98362.97
2022-09-13T08:36:12.847Z,98359.72
2022-09-13T08:38:39.885Z,98359.88
2022-09-13T08:41:27.786Z,98356.03
2022-09-13T08:44:01.062Z,98351.69
2022-09-13T08:46:32.645Z,98351.03
2022-09-13T08:49:05.184Z,98337.78
2022-09-13T08:51:36.597Z,98347.38
2022-09-13T08:54:04.690Z,98339.03
2022-09-13T08:56:44.738Z,98334.22
2022-09-13T08:59:26.817Z,98338.63
2022-09-13T09:02:04.457Z,98331.28
2022-09-13T09:04:41.253Z,98339.41
2022-09-13T09:07:13.197Z,98331.69
2022-09-13T09:09:45.141Z,98323.66
2022-09-13T09:12:20.353Z,98322.78
2022-09-13T09:14:56.797Z,98320.78
2022-09-13T09:17:28.937Z,98325.97
2022-09-13T09:20:07.644Z,98332.69
2022-09-13T09:22:36.303Z,98329.38
2022-09-13T09:25:04.401Z,98323.19
2022-09-13T09:27:33.838Z,98318.84
2022-09-13T09:30:01.849Z,98318.47
2022-09-13T09:32:47.573Z,98314.28
2022-09-13T09:35:27.626Z,98319.34
2022-09-13T09:38:14.875Z,98326.91
2022-09-13T09:40:42.035Z,98315.97
2022-09-13T09:43:17.862Z,98311.09
2022-09-13T09:45:46.874Z,98316.72
2022-09-13T09:48:19.866Z,98323.28
2022-09-13T09:50:51.970Z,98319.13
2022-09-13T09:53:28.988Z,98312.28
2022-09-13T09:56:00.636Z,98320.78
2022-09-13T09:58:40.434Z,98320.06
2022-09-13T10:01:19.499Z,98314.53
2022-09-13T10:03:54.261Z,98316.91
2022-09-13T10:06:22.834Z,98308.53
2022-09-13T10:09:00.005Z,98305.50
2022-09-13T10:11:46.351Z,98305.16
2022-09-13T10:14:36.810Z,98306.38
2022-09-13T10:17:06.490Z,98306.00
2022-09-13T10:19:33.872Z,98291.34
2022-09-13T10:22:05.926Z,98303.50
2022-09-13T10:24:33.300Z,98291.56
2022-09-13T10:27:00.595Z,98300.59
2022-09-13T10:29:30.700Z,98288.28
2022-09-13T10:31:58.985Z,98290.53
2022-09-13T10:34:30.022Z,98298.31
2022-09-13T10:37:00.104Z,98290.22
2022-09-13T10:39:29.794Z,98284.56
2022-09-13T10:41:59.444Z,98278.84
2022-09-13T10:44:33.209Z,98282.63
2022-09-13T10:47:03.276Z,98274.03
2022-09-13T10:49:44.317Z,98278.44
2022-09-13T10:52:32.875Z,98271.09
2022-09-13T10:55:25.567Z,98274.06
2022-09-13T10:57:54.193Z,98271.69
2022-09-13T11:00:31.172Z,98280.81
2022-09-13T11:03:22.859Z,98265.44
2022-09-13T11:05:55.776Z,98272.91
2022-09-13T11:08:36.419Z,98263.25
2022-09-13T11:11:14.592Z,98267.88
2022-09-13T11:13:53.990Z,98261.72
2022-09-13T11:16:35.374Z,98255.47
2022-09-13T11:19:34.311Z,98263.38
2022-09-13T11:22:16.801Z,98255.50
2022-09-13T11:24:53.623Z,98252.78
2022-09-13T11:27:29.348Z,98257.25
2022-09-13T11:30:08.644Z,98258.94
2022-09-13T11:32:55.572Z,98256.94
2022-09-13T11:35:38.286Z,98254.75
2022-09-13T11:38:22.545Z,98252.69
2022-09-13T11:40:58.465Z,98259.34
2022-09-13T11:43:47.441Z,98255.69
2022-09-13T11:46:23.646Z,98250.50
2022-09-13T11:49:26.246Z,98260.44
2022-09-13T11:52:05.391Z,98247.03
2022-09-13T11:54:51.041Z,98254.59
2022-09-13T11:57:25.044Z,98241.94
2022-09-13T11:59:57.701Z,98244.88
2022-09-13T12:02:29.764Z,98233.78
2022-09-13T12:05:20.911Z,98232.09
2022-09-13T12:07:52.390Z,98236.84
2022-09-13T12:10:25.248Z,98234.75
2022-09-13T12:12:54.471Z,98231.34
2022-09-13T12:15:33.057Z,98238.28
2022-09-13T12:18:05.974Z,98239.66
2022-09-13T12:20:37.935Z,98242.06
2022-09-13T12:23:11.665Z,98239.63
2022-09-13T12:25:46.350Z,98243.34
2022-09-13T12:28:19.452Z,98240.69
2022-09-13T12:30:52.517Z,98239.03
2022-09-13T12:33:19.949Z,98233.81
2022-09-13T12:36:01.499Z,98242.63
2022-09-13T12:38:55.966Z,98241.44
2022-09-13T12:41:37.116Z,98239.03
2022-09-13T12:44:25.514Z,98226.72
2022-09-13T12:47:27.621Z,98221.75
2022-09-13T12:53:11.699Z,98227.28
2022-09-13T12:56:00.189Z,98229.59
2022-09-13T12:58:47.377Z,98219.75
2022-09-13T13:01:17.808Z,98225.03
2022-09-13T13:03:53.141Z,98220.00
2022-09-13T13:06:29.225Z,98216.69
2022-09-13T13:09:00.523Z,98220.66
2022-09-13T13:11:42.020Z,98220.53
2022-09-13T13:14:28.196Z,98213.97
2022-09-13T13:16:55.473Z,98221.66
2022-09-13T13:19:31.837Z,98220.88
2022-09-13T13:22:32.330Z,98230.91
2022-09-13T13:25:32.253Z,98231.78
2022-09-13T13:27:59.670Z,98231.13
2022-09-13T13:30:55.164Z,98228.69
2022-09-13T13:33:26.668Z,98214.91
2022-09-13T13:35:54.189Z,98224.94
2022-09-13T13:38:52.117Z,98229.34
2022-09-13T13:41:55.165Z,98228.16
2022-09-13T13:45:10.483Z,98225.41
2022-09-13T13:48:18.862Z,98225.03
2022-09-13T13:51:19.399Z,98224.06
2022-09-13T13:53:51.056Z,98222.09
2022-09-13T13:56:24.759Z,98226.72
2022-09-13T13:58:57.074Z,98223.09
2022-09-13T14:01:27.255Z,98226.38
2022-09-13T14:04:35.789Z,98228.56
2022-09-13T14:07:19.612Z,98231.22
2022-09-13T14:09:56.513Z,98225.38
2022-09-13T14:12:34.569Z,98230.81
2022-09-13T14:15:19.679Z,98233.13
2022-09-13T14:18:10.339Z,98229.81
2022-09-13T14:20:37.678Z,98232.06
2022-09-13T14:23:18.590Z,98233.41
2022-09-13T14:25:46.530Z,98233.97
2022-09-13T14:28:23.889Z,98238.06
2022-09-13T14:30:56.481Z,98230.47
2022-09-13T14:33:30.994Z,98232.34
2022-09-13T14:36:01.497Z,98245.94
2022-09-13T14:38:35.671Z,98238.56
2022-09-13T14:41:14.453Z,98235.41
2022-09-13T14:43:42.559Z,98235.59
2022-09-13T14:46:15.492Z,98236.09
2022-09-13T14:48:47.614Z,98242.66
2022-09-13T14:51:20.462Z,98242.47
2022-09-13T14:53:52.092Z,98240.94
2022-09-13T14:56:32.114Z,98235.84
2022-09-13T14:59:01.306Z,98234.31
2022-09-13T15:01:32.252Z,98236.16
2022-09-13T15:04:02.623Z,98243.34
2022-09-13T15:06:33.394Z,98244.13
2022-09-13T15:09:13.526Z,98237.06
2022-09-13T15:11:55.391Z,98234.78
2022-09-13T15:14:28.618Z,98230.69
2022-09-13T15:17:03.874Z,98230.41
2022-09-13T15:19:37.715Z,98235.88
2022-09-13T15:22:21.221Z,98233.75
2022-09-13T15:24:51.311Z,98230.84
2022-09-13T15:27:26.128Z,98234.44
2022-09-13T15:29:55.278Z,98236.13
2022-09-13T15:32:30.894Z,98230.09
2022-09-13T15:34:59.725Z,98244.19
2022-09-13T15:37:36.194Z,98235.03
2022-09-13T15:40:19.138Z,98237.97
2022-09-13T15:42:52.237Z,98233.59
2022-09-13T15:45:21.125Z,98234.50
2022-09-13T15:47:51.198Z,98242.66
2022-09-13T15:50:31.020Z,98244.31
2022-09-13T15:52:58.956Z,98247.53
2022-09-13T15:55:27.291Z,98252.84
2022-09-13T15:57:55.127Z,98249.59
2022-09-13T16:00:24.563Z,98247.88
2022-09-13T16:02:53.298Z,98255.41
2022-09-13T16:05:20.848Z,98263.88
2022-09-13T16:07:48.065Z,98264.56
2022-09-13T16:10:17.942Z,98264.56
2022-09-13T16:12:45.623Z,98268.19
2022-09-13T16:15:13.408Z,98265.38
2022-09-13T16:17:41.626Z,98262.50
2022-09-13T16:20:13.830Z,98260.22
2022-09-13T16:22:41.007Z,98261.03
2022-09-13T16:25:09.870Z,98273.63
2022-09-13T16:27:37.315Z,98282.44
2022-09-13T16:30:05.255Z,98272.47
2022-09-13T16:32:32.534Z,98275.09
2022-09-13T16:34:59.691Z,98274.34
2022-09-13T16:37:28.210Z,98282.88
2022-09-13T16:39:57.007Z,98283.84
2022-09-13T16:42:24.407Z,98280.16
2022-09-13T16:44:51.507Z,98283.53
2022-09-13T16:47:18.842Z,98280.38
2022-09-13T16:49:45.907Z,98289.00
2022-09-13T16:52:13.057Z,98291.56
2022-09-13T16:54:42.488Z,98300.13
2022-09-13T16:57:10.531Z,98306.09
2022-09-13T16:59:37.645Z,98307.28
2022-09-13T17:02:05.024Z,98297.19
2022-09-13T17:04:32.332Z,98306.41
2022-09-13T17:07:01.968Z,98312.28
2022-09-13T17:09:30.832Z,98304.31
2022-09-13T17:11:59.550Z,98315.59
2022-09-13T17:14:27.294Z,98318.06
2022-09-13T17:16:56.940Z,98319.97
2022-09-13T17:19:26.622Z,98318.47
2022-09-13T17:21:57.433Z,98326.91
2022-09-13T17:24:25.671Z,98322.88
2022-09-13T17:26:53.101Z,98326.63
2022-09-13T17:29:21.660Z,98332.72
2022-09-13T17:31:48.930Z,98327.09
2022-09-13T17:34:16.320Z,98339.97
2022-09-13T17:36:44.120Z,98337.97
2022-09-13T17:39:12.960Z,98346.09
2022-09-13T17:41:40.504Z,98347.19
2022-09-13T17:44:07.666Z,98351.72
2022-09-13T17:46:36.522Z,98348.94
2022-09-13T17:49:04.809Z,98350.50
2022-09-13T17:51:33.431Z,98355.19
2022-09-13T17:54:02.606Z,98358.13
2022-09-13T17:56:31.367Z,98365.97
2022-09-13T17:59:09.642Z,98362.66
2022-09-13T18:01:40.867Z,98370.75
2022-09-13T18:04:09.157Z,98364.53
2022-09-13T18:06:36.735Z,98376.31
2022-09-13T18:09:04.128Z,98383.66
2022-09-13T18:11:31.252Z,98383.41
2022-09-13T18:13:58.572Z,98381.59
2022-09-13T18:16:28.647Z,98384.50
2022-09-13T18:18:59.199Z,98382.69
2022-09-13T18:21:27.237Z,98386.38
2022-09-13T18:23:58.101Z,98393.94
2022-09-13T18:26:27.099Z,98392.09
2022-09-13T18:28:56.109Z,98390.31
2022-09-13T18:31:24.464Z,98397.38
2022-09-13T18:33:55.746Z,98401.03
2022-09-13T18:36:25.200Z,98396.34
2022-09-13T18:38:53.336Z,98407.28
2022-09-13T18:41:21.974Z,98401.31
2022-09-13T18:43:55.126Z,98395.59
2022-09-13T18:46:25.240Z,98402.63
2022-09-13T18:48:54.199Z,98403.69
2022-09-13T18:51:24.024Z,98402.13
2022-09-13T18:53:52.722Z,98404.75
2022-09-13T18:56:23.422Z,98407.88
2022-09-13T18:58:52.950Z,98407.88
2022-09-13T19:01:22.461Z,98411.00
2022-09-13T19:03:51.319Z,98409.91
2022-09-13T19:06:20.489Z,98408.09
2022-09-13T19:08:49.328Z,98406.53
2022-09-13T19:11:42.227Z,98407.06
2022-09-13T19:14:06.377Z,98413.81
2022-09-13T19:16:34.021Z,98411.97
2022-09-13T19:19:01.294Z,98409.09
2022-09-13T19:21:29.688Z,98403.88
2022-09-13T19:24:00.347Z,98403.34
2022-09-13T19:26:32.226Z,98399.16
2022-09-13T19:29:06.482Z,98414.72
2022-09-13T19:31:35.152Z,98401.66
2022-09-13T19:34:02.561Z,98399.31
2022-09-13T19:36:34.286Z,98407.91
2022-09-13T19:39:02.262Z,98404.53
2022-09-13T19:41:31.354Z,98408.41
2022-09-13T19:44:00.627Z,98407.88
2022-09-13T19:46:31.693Z,98404.72
2022-09-13T19:49:00.834Z,98405.19
2022-09-13T19:51:30.233Z,98401.78
2022-09-13T19:53:59.223Z,98413.44
2022-09-13T19:56:27.832Z,98406.16
2022-09-13T19:58:56.508Z,98415.97
2022-09-13T20:01:26.975Z,98417.00
2022-09-13T20:03:56.052Z,98418.56
2022-09-13T20:06:24.642Z,98413.91
2022-09-13T20:08:52.996Z,98417.28
2022-09-13T20:11:20.958Z,98421.69
2022-09-13T20:13:48.941Z,98419.63
2022-09-13T20:16:19.713Z,98418.84
2022-09-13T20:18:47.404Z,98426.88
2022-09-13T20:21:14.895Z,98423.72
2022-09-13T20:23:42.811Z,98422.13
2022-09-13T20:26:15.002Z,98422.59
2022-09-13T20:28:42.371Z,98417.91
2022-09-13T20:31:10.394Z,98418.38
2022-09-13T20:33:40.074Z,98418.63
2022-09-13T20:36:11.854Z,98425.50
2022-09-13T20:38:39.721Z,98426.44
2022-09-13T20:41:09.139Z,98422.47
2022-09-13T20:43:37.476Z,98424.63
2022-09-13T20:46:05.608Z,98427.66
2022-09-13T20:48:33.418Z,98426.00
2022-09-13T20:51:05.379Z,98424.50
2022-09-13T20:53:33.317Z,98433.88
2022-09-13T20:56:03.270Z,98440.38
2022-09-13T20:58:30.518Z,98439.66
2022-09-13T21:01:02.987Z,98440.19
2022-09-13T21:03:30.393Z,98438.56
2022-09-13T21:06:00.153Z,98448.56
2022-09-13T21:08:43.774Z,98439.38
2022-09-13T21:11:13.849Z,98442.22
2022-09-13T21:13:42.537Z,98451.75
2022-09-13T21:16:11.912Z,98444.44
2022-09-13T21:18:39.591Z,98446.81
2022-09-13T21:21:07.819Z,98447.59
2022-09-13T21:23:40.177Z,98446.81
2022-09-13T21:26:10.203Z,98454.31
2022-09-13T21:28:38.197Z,98449.94
2022-09-13T21:31:08.205Z,98452.28
2022-09-13T21:33:36.019Z,98458.75
2022-09-13T21:36:05.072Z,98453.50
2022-09-13T21:38:34.493Z,98449.03
2022-09-13T21:41:04.717Z,98459.09
2022-09-13T21:43:32.930Z,98452.28
2022-09-13T21:46:02.494Z,98454.56
2022-09-13T21:48:30.413Z,98448.56
2022-09-13T21:51:06.142Z,98450.81
2022-09-13T21:53:35.583Z,98452.84
2022-09-13T21:56:08.979Z,98450.13
2022-09-13T21:58:37.249Z,98444.13
2022-09-13T22:01:06.277Z,98444.34
2022-09-13T22:03:52.055Z,98448.22
2022-09-13T22:06:23.315Z,98451.47
2022-09-13T22:09:03.491Z,98449.75
2022-09-13T22:11:36.335Z,98451.63
2022-09-13T22:14:04.662Z,98454.03
2022-09-13T22:16:33.955Z,98451.22
2022-09-13T22:19:17.153Z,98448.88
2022-09-13T22:21:54.470Z,98441.91
2022-09-13T22:24:23.778Z,98443.47
2022-09-13T22:26:58.294Z,98443.13
2022-09-13T22:29:29.107Z,98450.59
2022-09-13T22:31:57.875Z,98455.00
2022-09-13T22:34:29.380Z,98447.47
2022-09-13T22:37:00.964Z,98447.69
2022-09-13T22:39:28.203Z,98453.44
2022-09-13T22:41:56.767Z,98462.75
2022-09-13T22:44:23.945Z,98457.06
2022-09-13T22:46:51.119Z,98466.59
2022-09-13T22:49:19.843Z,98464.25
2022-09-13T22:51:48.117Z,98467.88
2022-09-13T22:54:16.362Z,98461.91
2022-09-13T22:56:43.664Z,98468.34
2022-09-13T22:59:16.306Z,98470.84
2022-09-13T23:01:44.525Z,98470.78
2022-09-13T23:04:12.458Z,98473.03
2022-09-13T23:06:40.305Z,98482.28
2022-09-13T23:09:08.344Z,98478.84
2022-09-13T23:11:37.219Z,98472.28
2022-09-13T23:14:06.070Z,98471.97
2022-09-13T23:16:38.047Z,98482.78
2022-09-13T23:19:05.570Z,98484.81
2022-09-13T23:21:35.196Z,98491.00
2022-09-13T23:24:04.298Z,98488.88
2022-09-13T23:26:31.731Z,98484.72
2022-09-13T23:29:00.856Z,98489.81
2022-09-13T23:31:29.630Z,98489.47
2022-09-13T23:33:59.789Z,98495.88
2022-09-13T23:36:29.122Z,98493.53
2022-09-13T23:38:58.380Z,98498.69
2022-09-13T23:41:26.374Z,98484.22
2022-09-13T23:43:54.190Z,98493.19
2022-09-13T23:46:21.627Z,98498.38
2022-09-13T23:48:48.961Z,98493.19
2022-09-13T23:51:19.098Z,98497.91
2022-09-13T23:53:47.320Z,98495.88
2022-09-13T23:56:16.729Z,98500.03
2022-09-13T23:58:44.177Z,98502.63
